Time;durP1;ratioP1;P1;durP2;ratioP2;P2;SDS_P1;SDS_P2;PMS_P1;PMS_P2;Temp;Humidity;BMP_temperature;BMP_pressure;BME280_temperature;BME280_humidity;BME280_pressure;Samples;Min_cycle;Max_cycle;Signal;HPM_P1;HPM_P2
2021/07/11 00:02:10;;;;;;;10.15;7.88;;;18.00;97.50;;;;;;5014856;28;20037;-64
2021/07/11 00:04:36;;;;;;;13.27;9.80;;;18.00;97.20;;;;;;5006658;28;20041;-64
2021/07/11 00:07:02;;;;;;;10.63;9.07;;;18.00;97.30;;;;;;5013434;28;20057;-64
2021/07/11 00:09:27;;;;;;;12.20;8.98;;;18.00;97.50;;;;;;5023939;28;20045;-64
2021/07/11 00:11:53;;;;;;;12.85;9.68;;;18.00;97.40;;;;;;5009044;28;20041;-65
2021/07/11 00:14:18;;;;;;;10.88;8.38;;;18.00;97.30;;;;;;5010607;28;20030;-65
2021/07/11 00:16:44;;;;;;;11.52;8.48;;;17.90;97.30;;;;;;5008952;28;20026;-65
2021/07/11 00:19:10;;;;;;;13.35;10.35;;;18.00;97.60;;;;;;5021420;28;20037;-65
2021/07/11 00:21:35;;;;;;;10.20;8.88;;;18.00;97.40;;;;;;5018080;28;20036;-63
2021/07/11 00:24:03;;;;;;;12.48;9.98;;;17.80;97.30;;;;;;5013230;28;20083;-64
2021/07/11 00:26:29;;;;;;;12.32;9.55;;;18.00;97.60;;;;;;5024687;28;20026;-64
2021/07/11 00:28:54;;;;;;;12.95;8.65;;;17.90;97.40;;;;;;5008507;28;20095;-64
2021/07/11 00:31:20;;;;;;;11.63;8.82;;;18.00;97.50;;;;;;5008386;28;20691;-64
2021/07/11 00:33:45;;;;;;;14.40;9.57;;;18.00;97.50;;;;;;5011786;28;20104;-64
2021/07/11 00:36:11;;;;;;;13.73;9.63;;;18.00;97.60;;;;;;5007117;28;20029;-64
2021/07/11 00:38:36;;;;;;;11.98;8.80;;;18.10;97.40;;;;;;5008710;28;20476;-64
2021/07/11 00:41:02;;;;;;;12.43;9.60;;;18.00;96.90;;;;;;5008393;28;20534;-64
2021/07/11 00:43:27;;;;;;;14.00;9.73;;;18.10;97.30;;;;;;5008222;28;20021;-64
2021/07/11 00:45:53;;;;;;;13.38;9.90;;;18.00;97.40;;;;;;5015456;28;20072;-64
2021/07/11 00:48:19;;;;;;;12.32;10.25;;;18.10;97.50;;;;;;5022253;28;20017;-64
2021/07/11 00:50:45;;;;;;;13.80;10.93;;;18.10;97.30;;;;;;5026163;28;20570;-64
2021/07/11 00:53:11;;;;;;;14.93;11.43;;;18.00;97.60;;;;;;5020792;28;20492;-64
2021/07/11 00:55:37;;;;;;;18.60;12.75;;;18.00;97.70;;;;;;5007642;28;20104;-64
2021/07/11 00:58:03;;;;;;;18.63;12.85;;;18.10;97.70;;;;;;5007975;28;20030;-64
2021/07/11 01:00:28;;;;;;;18.58;12.73;;;18.00;97.60;;;;;;5007969;28;20168;-65
2021/07/11 01:03:04;;;;;;;14.13;12.40;;;18.10;97.60;;;;;;5006834;28;20025;-64
2021/07/11 01:05:29;;;;;;;17.90;13.75;;;18.10;97.70;;;;;;5012945;28;20034;-64
2021/07/11 01:08:05;;;;;;;19.23;13.45;;;18.10;97.50;;;;;;5014117;28;20384;-64
2021/07/11 01:10:55;;;;;;;16.05;12.05;;;18.00;97.50;;;;;;5029894;28;20065;-64
2021/07/11 01:13:21;;;;;;;18.80;14.85;;;18.10;97.60;;;;;;5020510;28;20141;-64
2021/07/11 01:15:48;;;;;;;21.73;13.52;;;18.10;97.50;;;;;;4994144;28;20221;-64
2021/07/11 01:18:14;;;;;;;17.23;12.63;;;18.00;97.80;;;;;;5011433;28;20515;-64
2021/07/11 01:20:45;;;;;;;17.33;13.88;;;18.10;97.80;;;;;;5010180;28;20057;-64
2021/07/11 01:23:14;;;;;;;18.88;13.32;;;18.20;97.60;;;;;;5013343;28;20041;-64
2021/07/11 01:25:44;;;;;;;21.38;13.70;;;18.20;97.50;;;;;;5028816;28;20052;-64
2021/07/11 01:28:17;;;;;;;22.08;15.82;;;18.20;97.60;;;;;;5012225;28;20484;-64
2021/07/11 01:30:43;;;;;;;20.30;15.55;;;18.20;97.20;;;;;;5013190;28;20045;-65
2021/07/11 01:36:30;;;;;;;22.60;16.17;;;18.20;97.20;;;;;;5015236;28;20136;-64
2021/07/11 01:38:56;;;;;;;22.55;16.80;;;18.10;97.10;;;;;;5028186;28;20511;-64
2021/07/11 01:41:21;;;;;;;20.92;15.95;;;18.10;97.50;;;;;;4997647;28;20041;-65
2021/07/11 01:43:53;;;;;;;20.60;16.17;;;18.20;97.20;;;;;;5026313;28;20037;-65
2021/07/11 01:46:18;;;;;;;23.63;16.75;;;18.00;97.00;;;;;;5018797;28;20032;-64
2021/07/11 01:48:44;;;;;;;27.30;20.08;;;18.00;97.20;;;;;;5026622;28;20393;-64
2021/07/11 01:51:09;;;;;;;24.17;18.60;;;17.90;96.90;;;;;;5021683;28;20501;-65
2021/07/11 01:53:40;;;;;;;24.52;18.35;;;18.00;97.10;;;;;;5008109;28;20114;-64
2021/07/11 01:56:06;;;;;;;31.30;20.77;;;18.00;96.90;;;;;;5009592;28;20026;-64
2021/07/11 01:58:32;;;;;;;26.80;21.17;;;17.90;97.20;;;;;;5011703;28;20034;-64
2021/07/11 02:00:57;;;;;;;28.60;22.13;;;18.00;96.90;;;;;;5018795;28;20041;-64
2021/07/11 02:03:25;;;;;;;31.33;22.52;;;17.90;97.10;;;;;;5013898;28;20038;-64
2021/07/11 02:05:51;;;;;;;30.25;23.00;;;18.00;97.40;;;;;;5028377;28;20507;-64
2021/07/11 02:08:17;;;;;;;32.83;24.13;;;18.00;97.20;;;;;;5011525;28;20095;-64
2021/07/11 02:10:44;;;;;;;40.03;30.17;;;18.00;97.50;;;;;;5015224;28;20563;-64
2021/07/11 02:13:42;;;;;;;50.55;37.83;;;18.00;97.30;;;;;;5028027;28;20087;-64
2021/07/11 02:16:13;;;;;;;58.83;40.17;;;18.00;97.20;;;;;;5020676;28;20026;-64
2021/07/11 02:18:39;;;;;;;54.95;37.97;;;18.00;97.10;;;;;;5025698;28;20484;-64
2021/07/11 02:21:06;;;;;;;54.55;39.25;;;18.00;97.20;;;;;;5020935;28;20028;-64
2021/07/11 02:23:32;;;;;;;56.65;40.20;;;18.00;97.00;;;;;;5023964;28;20528;-64
2021/07/11 02:25:58;;;;;;;56.92;40.42;;;18.00;97.00;;;;;;5016803;28;20395;-64
2021/07/11 02:28:23;;;;;;;61.88;40.92;;;17.80;97.10;;;;;;5011966;28;20109;-64
2021/07/11 02:30:53;;;;;;;62.65;41.95;;;18.00;97.20;;;;;;5022908;28;20038;-64
2021/07/11 02:33:26;;;;;;;62.88;41.15;;;17.90;97.20;;;;;;5014576;28;20100;-64
2021/07/11 02:35:52;;;;;;;68.18;42.88;;;17.90;97.40;;;;;;5022836;28;20084;-64
2021/07/11 02:38:17;;;;;;;58.45;36.85;;;17.80;97.40;;;;;;5008471;28;20054;-64
2021/07/11 02:40:43;;;;;;;52.55;35.10;;;17.90;97.40;;;;;;5022584;28;20026;-64
2021/07/11 02:43:10;;;;;;;47.42;31.42;;;18.00;97.40;;;;;;5015078;28;20365;-64
2021/07/11 02:45:36;;;;;;;45.65;30.48;;;17.80;96.80;;;;;;5011900;28;20025;-64
2021/07/11 02:48:02;;;;;;;46.35;31.42;;;17.70;97.40;;;;;;5026799;28;20034;-65
2021/07/11 02:50:28;;;;;;;46.70;32.28;;;17.80;97.50;;;;;;5026179;28;20091;-64
2021/07/11 02:52:53;;;;;;;46.17;29.10;;;17.80;97.60;;;;;;5008443;28;20022;-64
2021/07/11 02:55:29;;;;;;;40.10;28.52;;;17.80;97.50;;;;;;5023708;28;20081;-64
2021/07/11 02:57:57;;;;;;;41.17;28.77;;;17.80;97.70;;;;;;4999598;28;20469;-64
2021/07/11 03:00:22;;;;;;;43.50;27.58;;;17.70;97.50;;;;;;5015265;28;20135;-64
2021/07/11 03:02:48;;;;;;;42.03;28.15;;;17.80;97.70;;;;;;5026215;28;20109;-64
2021/07/11 03:05:18;;;;;;;41.63;29.15;;;17.60;96.80;;;;;;5008929;28;20025;-64
2021/07/11 03:07:43;;;;;;;38.65;28.25;;;17.60;97.90;;;;;;5012254;28;20073;-64
2021/07/11 03:10:10;;;;;;;37.17;26.98;;;17.70;97.60;;;;;;5017732;28;20096;-64
2021/07/11 03:12:36;;;;;;;35.75;26.55;;;17.70;97.50;;;;;;5028329;28;20033;-64
2021/07/11 03:15:02;;;;;;;36.67;25.67;;;17.60;97.50;;;;;;5009993;28;20400;-65
2021/07/11 03:17:27;;;;;;;34.97;25.48;;;17.50;97.70;;;;;;5017137;28;20030;-64
2021/07/11 03:19:53;;;;;;;32.95;24.58;;;17.50;97.80;;;;;;5009516;28;20153;-65
2021/07/11 03:22:24;;;;;;;35.47;26.02;;;17.60;97.60;;;;;;5009945;28;20033;-64
2021/07/11 03:24:50;;;;;;;33.75;25.55;;;17.60;97.70;;;;;;5014664;28;20073;-64
2021/07/11 03:27:16;;;;;;;36.42;26.38;;;17.60;97.70;;;;;;5008988;28;20064;-64
2021/07/11 03:30:01;;;;;;;38.80;29.02;;;17.70;97.50;;;;;;5008602;28;20069;-64
2021/07/11 03:32:26;;;;;;;39.00;28.45;;;17.60;97.60;;;;;;5008563;28;20049;-64
2021/07/11 03:34:52;;;;;;;40.80;27.75;;;17.60;97.80;;;;;;5009525;28;20540;-64
2021/07/11 03:37:17;;;;;;;41.33;29.02;;;17.60;97.50;;;;;;5008407;28;20026;-64
2021/07/11 03:39:44;;;;;;;42.33;29.17;;;17.70;98.10;;;;;;5011351;28;20026;-65
2021/07/11 03:42:10;;;;;;;41.55;28.65;;;17.60;97.70;;;;;;5008201;28;20554;-64
2021/07/11 03:44:36;;;;;;;46.03;30.40;;;17.70;97.60;;;;;;5008036;28;20030;-64
2021/07/11 03:47:03;;;;;;;43.03;30.65;;;17.80;97.80;;;;;;5024959;28;20365;-64
2021/07/11 03:49:28;;;;;;;41.05;29.85;;;17.70;97.50;;;;;;5017723;28;20060;-64
2021/07/11 03:51:57;;;;;;;44.53;30.80;;;17.80;97.70;;;;;;5017626;28;20046;-65
2021/07/11 03:54:22;;;;;;;38.20;29.08;;;18.00;97.50;;;;;;5020667;28;20152;-64
2021/07/11 03:56:48;;;;;;;47.80;31.73;;;17.70;97.30;;;;;;5022912;28;20152;-64
2021/07/11 03:59:13;;;;;;;46.88;33.22;;;17.70;97.30;;;;;;5007852;28;20084;-65
2021/07/11 04:01:39;;;;;;;44.38;29.75;;;17.70;97.60;;;;;;5004783;28;20033;-64
2021/07/11 04:04:07;;;;;;;41.35;27.73;;;17.70;97.40;;;;;;5014168;28;20336;-64
2021/07/11 04:06:32;;;;;;;48.80;30.42;;;17.70;97.40;;;;;;4992376;28;20081;-64
2021/07/11 04:09:04;;;;;;;35.13;27.02;;;18.70;97.90;;;;;;5008617;28;20065;-64
2021/07/11 04:11:33;;;;;;;39.97;27.83;;;17.70;97.00;;;;;;5009026;28;20029;-64
2021/07/11 04:13:58;;;;;;;39.03;26.10;;;17.70;97.50;;;;;;5008851;28;20076;-64
2021/07/11 04:16:24;;;;;;;39.22;27.92;;;17.60;97.00;;;;;;5026355;28;20392;-65
2021/07/11 04:18:51;;;;;;;43.08;27.65;;;17.50;97.40;;;;;;5020693;28;20468;-65
2021/07/11 04:21:16;;;;;;;35.30;25.40;;;17.50;97.70;;;;;;5014696;28;20042;-65
2021/07/11 04:23:43;;;;;;;35.92;26.52;;;17.40;97.60;;;;;;5014140;28;20163;-64
2021/07/11 04:26:09;;;;;;;39.67;26.55;;;17.50;97.40;;;;;;5010117;28;20440;-65
2021/07/11 04:28:36;;;;;;;32.13;24.48;;;17.50;97.30;;;;;;5016223;28;20029;-65
2021/07/11 04:31:02;;;;;;;34.13;24.92;;;17.60;97.40;;;;;;5030964;28;20033;-66
2021/07/11 04:33:28;;;;;;;32.78;24.08;;;17.60;97.30;;;;;;5026124;28;20358;-66
2021/07/11 04:35:54;;;;;;;32.08;23.33;;;17.60;97.40;;;;;;5014964;28;20435;-65
2021/07/11 04:38:20;;;;;;;36.35;24.63;;;17.40;97.40;;;;;;5027436;28;20028;-64
2021/07/11 04:40:49;;;;;;;30.15;24.15;;;17.60;97.50;;;;;;5010573;28;20036;-64
2021/07/11 04:43:16;;;;;;;32.65;23.48;;;17.60;97.20;;;;;;5018085;28;20116;-65
2021/07/11 04:45:42;;;;;;;41.60;32.33;;;17.70;97.30;;;;;;5009651;28;20147;-65
2021/07/11 04:48:08;;;;;;;37.10;27.15;;;17.90;97.00;;;;;;5019643;28;20096;-65
2021/07/11 04:50:33;;;;;;;31.63;25.20;;;17.70;96.90;;;;;;5012070;28;20718;-65
2021/07/11 04:52:59;;;;;;;32.63;23.27;;;17.70;97.20;;;;;;5011715;28;20429;-64
2021/07/11 04:55:24;;;;;;;34.75;24.88;;;17.70;96.70;;;;;;5015945;28;20022;-64
2021/07/11 04:57:50;;;;;;;32.00;23.52;;;17.80;96.70;;;;;;5028055;28;20469;-64
2021/07/11 05:00:16;;;;;;;31.75;22.63;;;17.80;96.70;;;;;;5016185;28;20047;-64
2021/07/11 05:02:41;;;;;;;31.42;22.30;;;17.80;96.80;;;;;;5013554;28;20080;-65
2021/07/11 05:05:07;;;;;;;30.27;23.63;;;17.80;96.30;;;;;;5027851;28;20574;-64
2021/07/11 05:07:34;;;;;;;34.50;23.92;;;17.90;96.20;;;;;;5025437;28;20712;-64
2021/07/11 05:09:59;;;;;;;32.72;23.92;;;17.80;96.20;;;;;;5027758;28;20072;-64
2021/07/11 05:12:25;;;;;;;31.33;24.33;;;17.80;96.30;;;;;;5026756;28;20048;-64
2021/07/11 05:14:51;;;;;;;38.15;24.83;;;17.80;96.30;;;;;;5017824;28;20419;-64
2021/07/11 05:17:16;;;;;;;32.72;24.17;;;17.80;96.10;;;;;;5008129;28;20026;-65
2021/07/11 05:19:42;;;;;;;37.63;25.08;;;17.80;96.20;;;;;;5007766;28;20188;-64
2021/07/11 05:22:07;;;;;;;36.55;24.73;;;18.00;96.20;;;;;;5023913;28;20037;-65
2021/07/11 05:24:33;;;;;;;35.63;25.40;;;18.10;96.50;;;;;;5027434;28;20029;-64
2021/07/11 05:26:59;;;;;;;35.85;24.60;;;18.10;96.40;;;;;;5012171;28;20025;-64
2021/07/11 05:29:24;;;;;;;36.10;25.40;;;18.10;96.40;;;;;;5007430;28;20416;-64
2021/07/11 05:31:50;;;;;;;41.17;27.92;;;18.20;96.30;;;;;;5007933;28;20033;-65
2021/07/11 05:34:15;;;;;;;41.72;27.60;;;18.10;96.30;;;;;;5020734;28;20025;-64
2021/07/11 05:36:41;;;;;;;43.47;28.50;;;18.20;96.20;;;;;;5027394;28;20034;-64
2021/07/11 05:39:06;;;;;;;39.75;27.70;;;17.90;96.50;;;;;;5025680;28;20444;-64
2021/07/11 05:41:32;;;;;;;46.90;30.90;;;18.20;96.30;;;;;;5025964;28;20463;-64
2021/07/11 05:43:59;;;;;;;46.78;32.83;;;18.20;95.60;;;;;;5010792;28;20048;-65
2021/07/11 05:46:27;;;;;;;41.80;30.70;;;18.10;95.30;;;;;;5014626;28;20033;-64
2021/07/11 05:48:53;;;;;;;50.80;32.20;;;18.00;95.70;;;;;;5013587;28;20026;-64
2021/07/11 05:51:18;;;;;;;46.15;31.60;;;18.10;96.20;;;;;;5025916;28;20392;-64
2021/07/11 05:53:44;;;;;;;44.80;30.48;;;18.10;96.30;;;;;;5013406;28;20022;-64
2021/07/11 05:56:09;;;;;;;45.72;32.55;;;18.10;96.10;;;;;;5023129;28;20029;-64
2021/07/11 05:58:35;;;;;;;48.92;34.22;;;18.20;95.80;;;;;;5025289;28;20029;-64
2021/07/11 06:01:00;;;;;;;47.05;32.38;;;18.20;95.50;;;;;;5011124;28;20030;-65
2021/07/11 06:03:26;;;;;;;52.47;33.38;;;18.10;96.00;;;;;;5010803;28;20030;-65
2021/07/11 06:05:52;;;;;;;45.58;32.30;;;18.40;96.10;;;;;;5024918;28;20056;-64
2021/07/11 06:08:17;;;;;;;50.28;34.22;;;18.20;95.90;;;;;;5014729;28;20030;-65
2021/07/11 06:10:42;;;;;;;56.15;35.28;;;18.20;96.10;;;;;;5011818;28;20076;-64
2021/07/11 06:13:08;;;;;;;54.97;36.15;;;18.40;96.20;;;;;;5011768;28;20022;-64
2021/07/11 06:15:34;;;;;;;56.70;35.42;;;18.40;96.00;;;;;;5021316;28;20026;-65
2021/07/11 06:18:00;;;;;;;51.90;34.45;;;18.40;96.10;;;;;;5010812;28;20068;-65
2021/07/11 06:20:25;;;;;;;60.83;39.95;;;18.40;96.00;;;;;;5009350;28;20121;-64
2021/07/11 06:22:51;;;;;;;56.67;37.55;;;18.30;95.40;;;;;;5014035;28;20116;-65
2021/07/11 06:25:17;;;;;;;63.38;38.85;;;18.30;95.80;;;;;;5028300;28;20705;-64
2021/07/11 06:27:42;;;;;;;56.25;37.45;;;18.30;95.40;;;;;;5014654;28;20132;-65
2021/07/11 06:30:10;;;;;;;55.67;37.05;;;18.40;95.90;;;;;;5010645;28;20030;-65
2021/07/11 06:32:39;;;;;;;60.22;38.35;;;18.30;96.10;;;;;;5015984;28;20030;-64
2021/07/11 06:35:05;;;;;;;59.55;39.03;;;18.40;96.30;;;;;;5017594;28;20040;-64
2021/07/11 06:37:30;;;;;;;57.03;38.40;;;18.50;96.20;;;;;;5015336;28;20540;-64
2021/07/11 06:39:56;;;;;;;62.47;39.08;;;18.50;95.90;;;;;;5011473;28;20028;-65
2021/07/11 06:42:21;;;;;;;66.03;42.30;;;18.60;95.90;;;;;;5019390;28;20026;-65
2021/07/11 06:44:47;;;;;;;60.60;39.85;;;18.70;96.00;;;;;;5013578;28;20515;-64
2021/07/11 06:47:13;;;;;;;60.55;39.38;;;18.70;95.30;;;;;;5025014;28;20481;-64
2021/07/11 06:49:38;;;;;;;65.43;41.47;;;18.60;95.50;;;;;;5029824;28;20068;-64
2021/07/11 06:52:04;;;;;;;63.53;42.75;;;18.70;96.10;;;;;;5029413;28;20046;-64
2021/07/11 06:54:30;;;;;;;62.40;39.67;;;18.70;95.80;;;;;;5029893;28;20026;-64
2021/07/11 06:56:55;;;;;;;62.88;39.42;;;18.70;95.50;;;;;;5029282;28;20022;-64
2021/07/11 06:59:21;;;;;;;58.28;38.47;;;18.70;95.90;;;;;;5021655;28;20116;-64
2021/07/11 07:01:46;;;;;;;55.15;38.00;;;18.70;95.80;;;;;;5019511;28;20472;-64
2021/07/11 07:04:12;;;;;;;59.60;37.83;;;18.70;95.60;;;;;;5023471;28;20033;-64
2021/07/11 07:06:37;;;;;;;61.25;38.67;;;18.80;95.60;;;;;;5019250;28;20058;-64
2021/07/11 07:09:03;;;;;;;60.20;38.40;;;19.00;95.70;;;;;;5013358;28;20699;-65
2021/07/11 07:11:28;;;;;;;65.00;39.88;;;18.70;95.60;;;;;;5014887;28;20069;-64
2021/07/11 07:13:54;;;;;;;64.03;39.80;;;18.60;95.80;;;;;;5010744;28;20030;-64
2021/07/11 07:16:19;;;;;;;60.75;37.78;;;18.70;96.20;;;;;;5025772;28;20123;-64
2021/07/11 07:18:45;;;;;;;66.78;40.22;;;18.80;95.90;;;;;;5015712;28;20026;-64
2021/07/11 07:21:11;;;;;;;60.25;39.83;;;18.60;96.10;;;;;;5027591;28;20460;-63
2021/07/11 07:23:36;;;;;;;66.55;41.30;;;18.60;96.40;;;;;;5009273;28;20444;-64
2021/07/11 07:26:02;;;;;;;69.32;41.30;;;18.60;96.30;;;;;;5018835;28;20017;-64
2021/07/11 07:28:27;;;;;;;68.93;41.85;;;18.60;96.00;;;;;;5019077;28;20029;-65
2021/07/11 07:30:53;;;;;;;65.85;41.17;;;18.60;95.80;;;;;;5022132;28;20033;-64
2021/07/11 07:33:18;;;;;;;81.35;47.38;;;18.60;95.40;;;;;;5025753;28;20025;-64
2021/07/11 07:35:44;;;;;;;80.80;47.13;;;18.50;95.60;;;;;;5016592;28;20690;-64
2021/07/11 07:38:09;;;;;;;69.45;42.35;;;18.50;96.30;;;;;;5024583;28;20471;-64
2021/07/11 07:40:35;;;;;;;68.15;40.88;;;18.50;96.30;;;;;;5026455;28;20112;-64
2021/07/11 07:43:01;;;;;;;69.57;40.90;;;18.60;96.10;;;;;;5018933;28;20025;-64
2021/07/11 07:45:27;;;;;;;70.55;43.28;;;18.60;96.00;;;;;;5024216;28;20033;-64
2021/07/11 07:47:52;;;;;;;64.97;38.42;;;18.60;96.30;;;;;;5026852;28;20017;-64
2021/07/11 07:50:18;;;;;;;64.82;39.67;;;18.60;95.60;;;;;;5023767;28;20031;-64
2021/07/11 07:52:44;;;;;;;61.53;38.50;;;18.70;95.80;;;;;;5021544;28;20485;-64
2021/07/11 07:55:10;;;;;;;71.10;43.35;;;18.80;95.20;;;;;;5025054;28;20476;-64
2021/07/11 07:57:35;;;;;;;78.70;48.58;;;18.80;94.80;;;;;;5023270;28;20075;-64
2021/07/11 08:00:01;;;;;;;72.97;44.97;;;18.90;94.90;;;;;;5025801;28;20025;-64
2021/07/11 08:02:27;;;;;;;59.45;37.90;;;18.80;95.30;;;;;;5027183;28;20061;-65
2021/07/11 08:04:52;;;;;;;65.18;43.30;;;18.70;95.20;;;;;;5027069;28;20439;-64
2021/07/11 08:07:24;;;;;;;48.58;32.60;;;18.70;95.00;;;;;;5025420;28;20787;-64
2021/07/11 08:09:50;;;;;;;44.33;31.40;;;18.60;95.20;;;;;;5021463;28;20083;-64
2021/07/11 08:12:15;;;;;;;52.72;35.17;;;18.50;94.80;;;;;;5025753;28;20025;-64
2021/07/11 08:14:41;;;;;;;55.67;36.45;;;18.60;95.20;;;;;;5023366;28;20429;-63
2021/07/11 08:17:06;;;;;;;78.78;50.70;;;18.70;95.00;;;;;;5022293;28;20045;-65
2021/07/11 08:19:32;;;;;;;52.33;35.50;;;18.70;94.90;;;;;;5022326;28;20037;-64
2021/07/11 08:21:57;;;;;;;54.97;36.30;;;18.70;94.60;;;;;;5014580;28;20055;-64
2021/07/11 08:24:23;;;;;;;55.60;36.58;;;18.60;94.40;;;;;;5022651;28;20072;-64
2021/07/11 08:26:49;;;;;;;48.05;32.88;;;18.70;94.50;;;;;;5012830;28;20033;-64
2021/07/11 08:29:14;;;;;;;53.75;32.85;;;18.80;94.80;;;;;;5016834;28;20087;-65
2021/07/11 08:31:40;;;;;;;49.47;31.08;;;18.80;94.10;;;;;;5012549;28;20037;-65
2021/07/11 08:34:05;;;;;;;39.97;29.83;;;18.80;94.00;;;;;;5007415;28;20065;-64
2021/07/11 08:36:31;;;;;;;47.17;32.10;;;18.90;94.10;;;;;;5007581;28;20076;-64
2021/07/11 08:38:58;;;;;;;49.70;35.90;;;18.90;93.90;;;;;;5007792;28;20105;-64
2021/07/11 08:41:24;;;;;;;55.50;37.50;;;19.00;94.00;;;;;;5010533;28;20025;-65
2021/07/11 08:43:51;;;;;;;52.63;35.28;;;19.10;93.80;;;;;;5010467;28;20029;-64
2021/07/11 08:46:16;;;;;;;49.63;34.25;;;19.30;93.70;;;;;;4993909;28;20033;-64
2021/07/11 08:48:43;;;;;;;52.75;35.72;;;19.30;93.40;;;;;;5013047;28;20037;-64
2021/07/11 08:51:08;;;;;;;48.45;35.00;;;19.30;93.70;;;;;;5026780;28;20022;-64
2021/07/11 08:53:34;;;;;;;56.60;36.95;;;19.50;94.00;;;;;;5020746;28;20037;-65
2021/07/11 08:56:02;;;;;;;68.63;46.90;;;19.60;93.00;;;;;;5009458;28;20026;-65
2021/07/11 08:58:28;;;;;;;48.03;32.63;;;20.00;92.80;;;;;;5020703;28;20030;-64
2021/07/11 09:00:54;;;;;;;48.90;33.22;;;20.30;91.70;;;;;;5019603;28;20035;-64
2021/07/11 09:03:20;;;;;;;46.13;32.50;;;20.60;91.40;;;;;;5020828;28;20072;-64
2021/07/11 09:05:45;;;;;;;50.85;31.38;;;20.70;89.50;;;;;;5016449;28;20702;-65
2021/07/11 09:08:13;;;;;;;45.67;32.08;;;20.90;90.30;;;;;;5018145;28;20076;-67
2021/07/11 09:10:56;;;;;;;51.20;33.70;;;21.00;89.40;;;;;;5010340;28;20109;-63
2021/07/11 09:13:23;;;;;;;50.50;36.17;;;21.00;89.30;;;;;;5012266;28;20087;-65
2021/07/11 09:15:50;;;;;;;42.17;30.92;;;21.10;90.10;;;;;;5009936;28;20097;-63
2021/07/11 09:18:23;;;;;;;43.63;29.67;;;21.30;89.30;;;;;;5014973;28;20026;-62
2021/07/11 09:20:53;;;;;;;44.35;31.77;;;21.40;87.70;;;;;;5018527;28;20053;-64
2021/07/11 09:23:18;;;;;;;40.40;28.83;;;21.60;88.80;;;;;;5018306;28;20022;-64
2021/07/11 09:26:02;;;;;;;41.15;27.17;;;21.80;88.30;;;;;;5011891;28;20034;-63
2021/07/11 09:28:28;;;;;;;37.35;27.27;;;21.90;86.50;;;;;;5018549;28;20122;-64
2021/07/11 09:31:14;;;;;;;39.80;27.17;;;21.50;87.70;;;;;;5014157;28;20484;-63
2021/07/11 09:33:41;;;;;;;38.88;29.52;;;21.80;87.30;;;;;;5012518;28;20034;-63
2021/07/11 09:36:27;;;;;;;37.50;28.42;;;21.70;85.40;;;;;;5022875;28;20044;-64
2021/07/11 09:38:56;;;;;;;32.00;24.88;;;21.60;86.50;;;;;;5017902;28;20041;-63
2021/07/11 09:41:27;;;;;;;38.03;26.95;;;21.70;85.80;;;;;;5013595;28;20389;-63
2021/07/11 09:43:54;;;;;;;37.90;27.90;;;21.80;85.50;;;;;;5021944;28;20030;-64
2021/07/11 09:46:20;;;;;;;37.70;27.77;;;22.00;85.80;;;;;;5026984;28;20463;-63
2021/07/11 09:48:45;;;;;;;55.00;43.25;;;21.60;84.00;;;;;;5019434;28;20029;-63
2021/07/11 09:51:21;;;;;;;36.63;26.83;;;22.00;85.20;;;;;;5017496;28;20022;-65
2021/07/11 09:53:48;;;;;;;36.53;29.17;;;21.90;82.70;;;;;;5018674;28;20033;-64
2021/07/11 09:56:40;;;;;;;35.35;27.13;;;22.00;84.40;;;;;;5011374;28;20588;-64
2021/07/11 09:59:08;;;;;;;35.53;26.77;;;21.80;85.50;;;;;;5012459;28;20047;-64
2021/07/11 10:01:34;;;;;;;34.55;26.88;;;22.00;83.90;;;;;;5019442;28;20068;-65
2021/07/11 10:04:00;;;;;;;35.08;25.77;;;22.20;82.80;;;;;;5028548;28;20072;-64
2021/07/11 10:06:26;;;;;;;35.53;27.17;;;22.00;81.70;;;;;;5013996;28;20062;-64
2021/07/11 10:08:52;;;;;;;34.45;26.15;;;21.80;81.60;;;;;;5025868;28;20056;-63
2021/07/11 10:11:18;;;;;;;38.40;28.02;;;21.60;84.80;;;;;;5028343;28;20449;-65
2021/07/11 10:13:43;;;;;;;32.13;25.17;;;21.50;84.70;;;;;;5028238;28;20492;-65
2021/07/11 10:16:10;;;;;;;34.17;26.60;;;21.70;85.40;;;;;;5020723;28;20034;-64
2021/07/11 10:18:35;;;;;;;34.65;23.63;;;22.10;83.20;;;;;;5027423;28;20039;-64
2021/07/11 10:21:01;;;;;;;35.72;25.02;;;22.20;84.60;;;;;;5020385;28;20112;-65
2021/07/11 10:23:28;;;;;;;26.48;22.58;;;22.00;81.70;;;;;;5024125;28;20405;-63
2021/07/11 10:25:57;;;;;;;30.42;24.33;;;22.10;83.20;;;;;;5026600;28;20060;-64
2021/07/11 10:28:24;;;;;;;32.83;25.25;;;22.10;83.20;;;;;;5025584;28;20030;-64
2021/07/11 10:30:50;;;;;;;35.20;27.95;;;22.10;83.90;;;;;;5011478;28;20042;-64
2021/07/11 10:33:18;;;;;;;27.83;20.95;;;22.30;85.30;;;;;;5009048;28;20037;-64
2021/07/11 10:35:54;;;;;;;26.35;20.63;;;22.40;82.70;;;;;;5014735;28;20054;-63
2021/07/11 10:38:27;;;;;;;24.67;20.65;;;22.60;80.10;;;;;;5014377;28;20053;-64
2021/07/11 10:40:53;;;;;;;50.70;39.45;;;22.80;78.80;;;;;;5014655;28;20034;-63
2021/07/11 10:43:18;;;;;;;27.15;21.00;;;22.70;79.80;;;;;;5021875;28;20369;-62
2021/07/11 10:45:48;;;;;;;26.40;21.63;;;22.50;78.30;;;;;;5027396;28;20439;-64
2021/07/11 10:48:14;;;;;;;25.00;18.92;;;22.90;81.50;;;;;;5018252;28;20040;-64
2021/07/11 10:50:43;;;;;;;18.50;16.05;;;23.30;79.30;;;;;;5013816;28;20158;-64
2021/07/11 10:53:16;;;;;;;20.40;15.57;;;23.60;77.10;;;;;;5012964;28;20053;-64
2021/07/11 10:55:43;;;;;;;17.27;14.80;;;23.70;78.40;;;;;;5016799;28;20021;-64
2021/07/11 10:58:18;;;;;;;16.33;13.90;;;23.60;74.20;;;;;;5012512;28;20068;-63
2021/07/11 11:00:45;;;;;;;15.93;13.88;;;23.30;75.30;;;;;;5021028;28;20152;-63
2021/07/11 11:03:18;;;;;;;17.77;14.25;;;23.50;74.40;;;;;;5021596;28;20483;-63
2021/07/11 11:05:44;;;;;;;17.30;13.93;;;23.50;75.40;;;;;;5016388;28;20030;-64
2021/07/11 11:08:11;;;;;;;16.23;13.43;;;23.80;74.20;;;;;;5014168;28;20032;-64
2021/07/11 11:10:37;;;;;;;17.42;14.30;;;23.70;74.80;;;;;;5013827;28;20551;-65
2021/07/11 11:13:28;;;;;;;15.30;13.57;;;23.60;74.30;;;;;;5024742;28;20041;-64
2021/07/11 11:16:02;;;;;;;14.85;12.15;;;23.20;73.40;;;;;;5015582;28;20014;-64
2021/07/11 11:18:31;;;;;;;15.18;11.38;;;23.70;73.20;;;;;;5017963;28;20111;-64
2021/07/11 11:20:58;;;;;;;11.95;10.38;;;24.10;70.40;;;;;;5008970;28;20192;-64
2021/07/11 11:23:24;;;;;;;11.75;10.48;;;24.40;70.00;;;;;;5012098;28;20526;-64
2021/07/11 11:25:49;;;;;;;9.93;8.25;;;24.50;72.30;;;;;;5020304;28;20069;-64
2021/07/11 11:28:25;;;;;;;11.02;9.90;;;24.50;68.30;;;;;;5009506;28;20100;-64
2021/07/11 11:30:51;;;;;;;10.05;8.23;;;24.60;69.10;;;;;;5010910;28;20029;-65
2021/07/11 11:33:16;;;;;;;8.02;7.22;;;24.60;66.20;;;;;;5024503;28;20032;-64
2021/07/11 11:35:45;;;;;;;10.30;6.70;;;24.40;67.00;;;;;;5025509;28;20409;-65
2021/07/11 11:38:11;;;;;;;7.72;6.93;;;24.50;69.40;;;;;;5009453;28;20029;-65
2021/07/11 11:40:36;;;;;;;8.70;7.18;;;24.40;68.50;;;;;;5023636;28;20069;-64
2021/07/11 11:43:06;;;;;;;7.30;6.60;;;24.10;66.20;;;;;;5010190;28;20567;-64
2021/07/11 11:45:33;;;;;;;8.00;6.40;;;24.50;66.90;;;;;;5018612;28;20038;-64
2021/07/11 11:48:11;;;;;;;7.10;6.40;;;24.80;66.60;;;;;;5011706;28;20453;-64
2021/07/11 11:50:38;;;;;;;7.88;5.47;;;25.10;62.70;;;;;;5009514;28;20030;-64
2021/07/11 11:53:04;;;;;;;5.43;4.63;;;25.00;62.80;;;;;;5010100;28;20022;-64
2021/07/11 11:55:30;;;;;;;4.97;4.50;;;24.30;60.80;;;;;;5009418;28;20469;-64
2021/07/11 11:58:06;;;;;;;4.45;4.05;;;24.30;60.70;;;;;;5026290;28;20104;-64
2021/07/11 12:00:32;;;;;;;5.85;4.28;;;24.30;63.50;;;;;;5017128;28;20030;-64
2021/07/11 12:03:02;;;;;;;5.70;5.13;;;24.80;60.20;;;;;;5011370;28;20045;-64
2021/07/11 12:05:29;;;;;;;4.65;4.25;;;24.80;62.40;;;;;;5020981;28;20037;-64
2021/07/11 12:07:56;;;;;;;5.35;4.70;;;25.50;61.90;;;;;;5011493;28;20034;-64
2021/07/11 12:10:22;;;;;;;6.95;4.50;;;25.80;62.10;;;;;;5015206;28;20037;-64
2021/07/11 12:13:01;;;;;;;5.55;3.67;;;25.50;63.40;;;;;;5027808;28;20385;-65
2021/07/11 12:15:31;;;;;;;4.30;3.90;;;26.00;60.00;;;;;;5027148;28;20071;-65
2021/07/11 12:18:02;;;;;;;5.18;3.53;;;25.70;61.60;;;;;;5018114;28;20032;-64
2021/07/11 12:20:28;;;;;;;3.90;3.50;;;25.80;58.50;;;;;;5022162;28;20042;-64
2021/07/11 12:22:53;;;;;;;3.78;3.47;;;27.50;55.20;;;;;;5018745;28;20182;-65
2021/07/11 12:25:24;;;;;;;4.38;3.97;;;27.40;51.50;;;;;;5014180;28;20790;-65
2021/07/11 12:27:59;;;;;;;7.53;3.67;;;27.30;52.80;;;;;;5012565;28;20709;-65
2021/07/11 12:30:25;;;;;;;4.22;3.28;;;27.80;52.50;;;;;;5018742;28;20041;-64
2021/07/11 12:32:53;;;;;;;7.25;3.15;;;28.90;48.30;;;;;;5018025;28;20068;-64